Time;durP1;ratioP1;P1;durP2;ratioP2;P2;SDS_P1;SDS_P2;PMS_P1;PMS_P2;Temp;Humidity;BMP_temperature;BMP_pressure;BME280_temperature;BME280_humidity;BME280_pressure;Samples;Min_cycle;Max_cycle;Signal;HPM_P1;HPM_P2
2022/11/15 00:01:26;;;;;;;15.00;8.90;;;;;;;4.36;83.36;100442.55;106852;1302;22195;-58
2022/11/15 00:04:11;;;;;;;21.80;9.40;;;;;;;4.39;83.26;100439.88;106706;1283;138927;-57
2022/11/15 00:06:59;;;;;;;12.10;8.40;;;;;;;4.41;82.80;100429.36;106857;1302;23219;-57
2022/11/15 00:09:45;;;;;;;16.00;8.30;;;;;;;4.43;83.16;100426.77;106889;1287;23475;-57
2022/11/15 00:14:06;;;;;;;14.50;8.30;;;;;;;4.45;82.68;100420.26;99768;1335;545194;-57
2022/11/15 00:16:52;;;;;;;14.30;8.90;;;;;;;4.41;82.56;100416.04;101546;1303;137023;-57
2022/11/15 00:19:37;;;;;;;12.80;8.00;;;;;;;4.38;82.44;100415.51;101296;1298;22501;-57
2022/11/15 00:22:23;;;;;;;14.50;8.00;;;;;;;4.35;82.53;100409.63;101225;1322;137667;-57
2022/11/15 00:25:09;;;;;;;14.80;7.80;;;;;;;4.31;82.64;100402.27;101343;1308;24445;-56
2022/11/15 00:27:57;;;;;;;11.70;8.30;;;;;;;4.26;82.55;100393.67;101354;1303;272367;-57
2022/11/15 00:30:42;;;;;;;13.10;8.30;;;;;;;4.22;82.77;100394.34;101703;1298;22495;-58
2022/11/15 00:33:28;;;;;;;69.10;34.90;;;;;;;4.18;82.67;100391.91;101611;1298;25382;-57
2022/11/15 00:36:14;;;;;;;24.80;10.70;;;;;;;4.15;83.03;100387.41;101492;1298;138802;-58
2022/11/15 00:38:59;;;;;;;11.40;7.60;;;;;;;4.08;82.98;100382.52;101705;1298;22571;-56
2022/11/15 00:41:45;;;;;;;10.00;7.00;;;;;;;3.98;83.27;100383.91;101641;1288;137637;-58
2022/11/15 00:44:31;;;;;;;11.40;7.10;;;;;;;3.92;83.39;100380.56;101760;1311;25447;-59
2022/11/15 00:47:16;;;;;;;12.40;6.90;;;;;;;3.86;83.75;100383.52;101687;1304;139672;-58
2022/11/15 00:50:02;;;;;;;10.10;6.60;;;;;;;3.81;84.00;100378.19;101776;1288;25416;-58
2022/11/15 00:52:56;;;;;;;11.50;6.70;;;;;;;3.78;84.20;100368.98;101714;1288;139027;-58
2022/11/15 00:55:42;;;;;;;10.10;7.30;;;;;;;3.78;84.67;100365.63;101673;1296;24311;-59
2022/11/15 00:58:27;;;;;;;10.10;7.10;;;;;;;3.78;84.84;100360.20;101603;1305;138173;-58
2022/11/15 01:01:14;;;;;;;10.40;7.10;;;;;;;3.77;84.94;100355.70;101672;1319;22560;-58
2022/11/15 01:04:00;;;;;;;13.70;7.10;;;;;;;3.76;84.92;100360.01;106245;1305;22192;-59
2022/11/15 01:06:46;;;;;;;9.20;7.20;;;;;;;3.76;85.23;100361.46;106104;1312;22101;-60
2022/11/15 01:09:31;;;;;;;11.70;6.80;;;;;;;3.76;85.11;100360.51;106075;1312;22149;-59
2022/11/15 01:12:17;;;;;;;12.50;7.10;;;;;;;3.76;84.92;100360.27;105929;1298;137733;-60
2022/11/15 01:15:03;;;;;;;10.30;6.30;;;;;;;3.75;84.81;100358.85;106047;1312;23357;-60
2022/11/15 01:17:48;;;;;;;9.20;5.60;;;;;;;3.74;84.65;100354.16;106023;1312;137533;-60
2022/11/15 01:20:33;;;;;;;8.20;5.80;;;;;;;3.74;84.85;100349.45;106031;1312;22966;-59
2022/11/15 01:23:19;;;;;;;10.80;6.10;;;;;;;3.74;84.77;100348.11;105907;1312;138211;-59
2022/11/15 01:26:06;;;;;;;11.10;6.20;;;;;;;3.76;84.90;100345.95;106097;1312;22165;-59
2022/11/15 01:28:51;;;;;;;10.40;6.20;;;;;;;3.79;84.72;100340.73;105859;1312;138818;-60
2022/11/15 01:31:43;;;;;;;10.90;6.00;;;;;;;3.83;84.84;100338.20;105877;1309;22180;-60
2022/11/15 01:35:09;;;;;;;8.60;5.40;;;;;;;3.88;84.90;100334.55;106278;1309;139295;-60
2022/11/15 01:38:12;;;;;;;7.20;5.50;;;;;;;3.93;84.69;100329.27;106158;1309;23213;-52
2022/11/15 01:41:19;;;;;;;9.20;5.70;;;;;;;3.94;85.06;100323.52;105873;1309;137906;-53
2022/11/15 01:44:49;;;;;;;6.90;5.30;;;;;;;3.91;84.44;100316.52;106386;1307;22919;-52
2022/11/15 01:48:05;;;;;;;7.60;4.80;;;;;;;3.94;84.33;100323.46;106253;1309;138440;-52
2022/11/15 01:51:09;;;;;;;10.40;6.20;;;;;;;3.95;84.59;100322.16;106254;1309;22216;-53
2022/11/15 01:53:55;;;;;;;9.40;5.30;;;;;;;3.98;84.44;100317.28;106152;1304;139395;-52
2022/11/15 01:56:46;;;;;;;11.30;5.80;;;;;;;4.00;83.87;100312.16;106368;1309;22838;-53
2022/11/15 01:59:31;;;;;;;7.10;5.00;;;;;;;4.01;84.00;100307.20;106248;1309;140074;-53
2022/11/15 02:02:17;;;;;;;8.80;5.00;;;;;;;4.02;84.22;100303.14;106282;1309;22614;-52
2022/11/15 02:05:02;;;;;;;9.20;5.50;;;;;;;4.02;83.94;100295.89;106295;1309;138906;-52
2022/11/15 02:07:48;;;;;;;8.70;5.30;;;;;;;4.02;84.05;100291.77;101798;1288;22606;-51
2022/11/15 02:10:33;;;;;;;7.00;5.10;;;;;;;4.01;83.89;100292.80;101688;1311;137584;-52
2022/11/15 02:13:19;;;;;;;10.40;4.90;;;;;;;3.98;83.91;100289.74;101848;1316;24017;-51
2022/11/15 02:16:34;;;;;;;8.10;5.70;;;;;;;3.97;84.14;100285.05;101756;1319;25212;-51
2022/11/15 02:19:22;;;;;;;8.20;5.00;;;;;;;3.95;84.17;100283.83;101868;1304;22497;-51
2022/11/15 02:22:23;;;;;;;9.00;5.20;;;;;;;3.94;83.98;100283.48;101870;1302;22499;-51
2022/11/15 02:25:28;;;;;;;9.70;5.10;;;;;;;3.90;84.28;100277.94;101793;1292;24414;-51
2022/11/15 02:28:42;;;;;;;10.10;5.30;;;;;;;3.89;84.43;100280.43;101771;1317;26676;-51
2022/11/15 02:32:13;;;;;;;8.50;6.00;;;;;;;3.89;84.55;100279.52;101759;1305;22511;-53
2022/11/15 02:35:25;;;;;;;10.00;5.50;;;;;;;3.90;84.64;100278.40;101789;1318;139275;-52
2022/11/15 02:38:40;;;;;;;11.50;5.80;;;;;;;3.89;84.34;100280.06;101226;1325;24424;-51
2022/11/15 02:41:30;;;;;;;10.20;5.80;;;;;;;3.89;84.60;100280.36;100970;1313;138256;-51
2022/11/15 02:44:23;;;;;;;8.60;4.80;;;;;;;3.88;84.76;100280.73;105439;1318;22257;-52
2022/11/15 02:47:14;;;;;;;8.40;6.10;;;;;;;3.88;84.56;100277.45;105741;1314;139820;-52
2022/11/15 02:50:10;;;;;;;15.30;7.90;;;;;;;3.86;84.57;100269.92;105678;1311;23151;-52
2022/11/15 02:52:56;;;;;;;14.90;8.30;;;;;;;3.85;84.62;100268.35;105839;1307;139392;-52
2022/11/15 02:55:43;;;;;;;12.40;7.60;;;;;;;3.87;84.82;100262.93;105998;1311;22296;-52
2022/11/15 02:58:53;;;;;;;14.20;6.60;;;;;;;3.88;84.61;100259.08;105864;1312;22248;-52
2022/11/15 03:02:12;;;;;;;11.90;6.00;;;;;;;3.88;84.80;100255.68;105940;1291;22301;-53
2022/11/15 03:05:02;;;;;;;11.30;6.80;;;;;;;3.85;84.92;100256.86;105828;1298;138009;-52
2022/11/15 03:08:00;;;;;;;10.80;7.00;;;;;;;3.83;85.05;100252.86;105663;1314;23231;-52
2022/11/15 03:11:17;;;;;;;9.70;7.30;;;;;;;3.82;84.84;100250.61;105672;1314;139658;-53
2022/11/15 03:14:04;;;;;;;11.20;6.70;;;;;;;3.82;85.25;100250.27;105798;1305;22971;-52
2022/11/15 03:16:58;;;;;;;;;;;;;;;3.78;85.29;100244.52;106461;1303;138283;-53
2022/11/15 03:19:47;;;;;;;12.60;6.60;;;;;;;3.78;85.42;100241.52;106626;1303;22605;-52
2022/11/15 03:22:37;;;;;;;13.50;6.50;;;;;;;3.79;85.49;100234.90;106557;1298;22157;-53
2022/11/15 03:25:24;;;;;;;11.50;7.50;;;;;;;3.80;85.81;100226.66;106457;1291;22889;-52
2022/11/15 03:28:10;;;;;;;11.70;7.10;;;;;;;3.78;85.25;100227.80;106449;1306;22301;-52
2022/11/15 03:30:56;;;;;;;11.80;7.20;;;;;;;3.76;85.25;100221.98;105756;1291;137524;-51
2022/11/15 03:33:41;;;;;;;16.40;8.30;;;;;;;3.76;85.55;100222.52;101906;1287;25382;-51
2022/11/15 03:36:27;;;;;;;16.90;9.70;;;;;;;3.76;85.34;100215.52;101847;1295;138109;-51
2022/11/15 03:39:13;;;;;;;31.70;15.40;;;;;;;3.76;85.57;100207.75;102103;1299;22537;-51
2022/11/15 03:42:14;;;;;;;24.50;11.80;;;;;;;3.76;85.70;100202.23;101977;1298;138509;-50
2022/11/15 03:45:22;;;;;;;15.80;9.20;;;;;;;3.74;85.57;100203.87;102232;1296;22505;-52
2022/11/15 03:48:13;;;;;;;15.70;10.70;;;;;;;3.72;85.55;100200.05;106430;1306;138971;-52
2022/11/15 03:50:58;;;;;;;19.40;11.00;;;;;;;3.68;85.44;100189.73;106536;1298;22140;-52
2022/11/15 03:53:43;;;;;;;28.00;15.20;;;;;;;3.71;85.70;100189.38;106483;1291;138294;-52
2022/11/15 03:56:29;;;;;;;22.70;13.80;;;;;;;3.70;85.48;100190.27;106608;1303;22192;-52
2022/11/15 03:59:14;;;;;;;22.50;12.60;;;;;;;3.66;85.32;100190.74;106476;1300;139932;-52
2022/11/15 04:02:00;;;;;;;23.20;14.30;;;;;;;3.64;85.47;100189.30;106591;1303;22144;-52
2022/11/15 04:04:45;;;;;;;18.70;11.80;;;;;;;3.61;85.44;100185.20;106524;1297;138038;-52
2022/11/15 04:07:30;;;;;;;20.70;13.70;;;;;;;3.59;85.23;100182.00;106617;1306;22121;-52
2022/11/15 04:10:16;;;;;;;21.10;12.20;;;;;;;3.59;85.37;100176.85;106600;1303;22176;-52
2022/11/15 04:13:02;;;;;;;25.80;13.80;;;;;;;3.59;85.49;100171.76;106636;1306;22186;-52
2022/11/15 04:15:47;;;;;;;22.00;13.10;;;;;;;3.58;85.50;100166.48;106627;1298;22240;-52
2022/11/15 04:18:33;;;;;;;21.70;12.00;;;;;;;3.63;85.35;100167.66;106435;1306;140320;-52
2022/11/15 04:24:22;;;;;;;23.50;13.40;;;;;;;3.67;85.69;100163.71;106531;1306;138930;-53
2022/11/15 04:27:08;;;;;;;21.60;14.30;;;;;;;3.69;85.65;100163.00;106618;1306;22160;-52
2022/11/15 04:29:53;;;;;;;24.30;14.40;;;;;;;3.72;86.05;100157.71;106487;1306;138302;-52
2022/11/15 04:32:38;;;;;;;21.70;13.80;;;;;;;3.75;85.81;100156.56;106537;1306;22833;-56
2022/11/15 04:35:24;;;;;;;21.70;13.00;;;;;;;3.76;86.04;100153.65;106438;1306;139621;-52
2022/11/15 04:38:10;;;;;;;20.80;12.70;;;;;;;3.77;85.89;100154.48;106578;1306;22149;-53
2022/11/15 04:40:55;;;;;;;21.30;12.40;;;;;;;3.76;85.63;100151.13;106449;1306;138630;-53
2022/11/15 04:43:40;;;;;;;24.20;13.30;;;;;;;3.78;85.90;100152.59;106505;1296;22164;-53
2022/11/15 04:46:26;;;;;;;18.40;11.30;;;;;;;3.79;85.83;100150.27;106528;1306;22221;-47
2022/11/15 04:49:12;;;;;;;18.30;12.00;;;;;;;3.81;85.81;100151.45;106513;1306;23212;-47
2022/11/15 04:51:57;;;;;;;20.20;12.20;;;;;;;3.82;85.33;100148.19;106513;1306;22135;-47
2022/11/15 04:54:43;;;;;;;21.80;12.40;;;;;;;3.83;85.37;100139.48;106445;1306;139620;-47
2022/11/15 04:57:28;;;;;;;21.00;12.70;;;;;;;3.83;85.42;100140.39;106526;1305;23252;-47
2022/11/15 05:00:15;;;;;;;18.10;11.70;;;;;;;3.83;85.45;100138.36;106583;1298;138713;-47
2022/11/15 05:06:05;;;;;;;27.60;15.70;;;;;;;3.80;85.08;100133.40;106525;1298;138133;-47
2022/11/15 05:08:50;;;;;;;26.70;13.80;;;;;;;3.75;84.82;100132.92;106583;1298;23430;-47
2022/11/15 05:11:36;;;;;;;25.80;16.00;;;;;;;3.73;85.00;100131.51;106512;1306;138098;-48
2022/11/15 05:14:21;;;;;;;23.90;15.00;;;;;;;3.71;85.12;100130.71;106599;1306;22115;-47
2022/11/15 05:17:07;;;;;;;30.40;17.30;;;;;;;3.65;85.09;100120.35;106465;1306;139072;-53
2022/11/15 05:19:52;;;;;;;28.00;15.60;;;;;;;3.71;85.02;100129.55;106581;1304;22143;-52
2022/11/15 05:22:37;;;;;;;26.20;16.20;;;;;;;3.72;84.86;100127.70;106587;1306;22151;-53
2022/11/15 05:25:23;;;;;;;28.20;16.30;;;;;;;3.72;84.67;100120.61;106621;1306;22312;-52
2022/11/15 05:28:08;;;;;;;24.80;15.70;;;;;;;3.74;84.81;100119.95;106584;1306;22197;-53
2022/11/15 05:31:03;;;;;;;29.70;17.00;;;;;;;3.77;85.02;100115.31;106476;1284;138798;-52
2022/11/15 05:33:49;;;;;;;32.80;16.90;;;;;;;3.80;84.75;100114.95;106556;1298;22241;-53
2022/11/15 05:36:38;;;;;;;33.50;17.70;;;;;;;3.82;84.90;100115.89;106463;1298;138474;-52
2022/11/15 05:39:25;;;;;;;33.30;16.30;;;;;;;3.83;84.62;100116.05;106569;1305;22204;-52
2022/11/15 05:42:14;;;;;;;28.30;16.70;;;;;;;3.83;84.58;100113.06;106483;1300;139273;-52
2022/11/15 05:44:59;;;;;;;31.50;16.40;;;;;;;3.82;84.13;100112.30;106548;1306;22123;-52
2022/11/15 05:47:45;;;;;;;30.60;16.70;;;;;;;3.78;84.28;100112.48;106553;1288;138117;-52
2022/11/15 05:50:30;;;;;;;32.80;17.10;;;;;;;3.75;83.99;100108.01;106631;1306;23066;-52
2022/11/15 05:53:16;;;;;;;35.60;18.90;;;;;;;3.74;83.92;100105.02;106494;1306;139327;-52
2022/11/15 05:56:02;;;;;;;35.80;17.80;;;;;;;3.72;84.35;100109.49;106555;1298;22156;-52
2022/11/15 05:58:48;;;;;;;36.00;17.80;;;;;;;3.70;84.35;100108.56;106552;1292;138936;-52
2022/11/15 06:01:33;;;;;;;33.30;18.60;;;;;;;3.71;84.41;100105.80;106572;1306;22198;-52
2022/11/15 06:04:18;;;;;;;31.40;16.20;;;;;;;3.73;84.53;100101.80;106576;1305;22158;-52
2022/11/15 06:07:03;;;;;;;38.50;18.10;;;;;;;3.73;84.60;100094.77;106484;1305;138692;-52
2022/11/15 06:09:48;;;;;;;28.30;16.40;;;;;;;3.78;84.68;100099.72;106612;1306;22125;-52
2022/11/15 06:12:34;;;;;;;28.60;15.00;;;;;;;3.79;84.40;100097.91;106445;1298;139504;-52
2022/11/15 06:15:19;;;;;;;29.70;16.60;;;;;;;3.79;84.36;100099.56;106550;1306;22337;-47
2022/11/15 06:18:05;;;;;;;26.00;14.70;;;;;;;3.78;84.64;100096.52;106474;1306;138157;-47
2022/11/15 06:20:50;;;;;;;24.80;15.10;;;;;;;3.77;84.61;100089.80;106533;1297;22237;-47
2022/11/15 06:23:36;;;;;;;29.30;16.90;;;;;;;3.76;84.58;100084.90;106459;1306;138719;-47
2022/11/15 06:26:21;;;;;;;25.70;15.20;;;;;;;3.77;84.66;100082.02;106544;1306;22123;-47
2022/11/15 06:29:06;;;;;;;26.10;15.00;;;;;;;3.78;84.90;100081.02;106372;1305;138874;-47
2022/11/15 06:31:52;;;;;;;24.80;13.80;;;;;;;3.79;84.49;100079.45;106537;1306;22172;-47
2022/11/15 06:34:38;;;;;;;22.90;13.00;;;;;;;3.77;84.44;100076.29;106569;1305;22134;-47
2022/11/15 06:37:23;;;;;;;23.90;13.50;;;;;;;3.81;84.68;100077.48;106522;1306;22110;-47
2022/11/15 06:40:09;;;;;;;23.70;12.80;;;;;;;3.80;84.69;100077.92;106544;1299;22404;-47
2022/11/15 06:42:59;;;;;;;17.50;11.00;;;;;;;3.80;84.66;100080.61;106410;1306;138513;-47
2022/11/15 06:45:44;;;;;;;18.50;10.70;;;;;;;3.80;84.65;100076.77;105445;1308;22483;-51
2022/11/15 06:48:30;;;;;;;19.70;11.20;;;;;;;3.81;84.82;100075.86;101965;1314;139004;-51
2022/11/15 06:51:15;;;;;;;23.80;12.40;;;;;;;3.82;84.81;100072.92;102076;1314;22545;-51
2022/11/15 06:54:01;;;;;;;21.10;12.10;;;;;;;3.82;85.15;100075.41;102061;1313;138541;-51
2022/11/15 06:56:47;;;;;;;13.50;9.30;;;;;;;3.83;84.88;100073.05;102261;1298;25940;-52
2022/11/15 06:59:32;;;;;;;17.50;10.20;;;;;;;3.84;85.11;100073.09;102027;1299;139386;-51
2022/11/15 07:02:24;;;;;;;18.80;10.80;;;;;;;3.83;85.07;100070.10;106487;1308;22211;-52
2022/11/15 07:05:10;;;;;;;16.40;9.70;;;;;;;3.83;84.88;100070.45;106401;1305;138144;-52
2022/11/15 07:07:56;;;;;;;20.30;9.40;;;;;;;3.83;85.25;100071.98;106488;1308;23015;-53
2022/11/15 07:10:41;;;;;;;16.00;9.20;;;;;;;3.82;84.77;100072.35;106494;1308;22391;-53
2022/11/15 07:13:27;;;;;;;15.80;10.10;;;;;;;3.82;84.89;100072.05;106508;1304;22252;-53
2022/11/15 07:16:13;;;;;;;18.40;10.30;;;;;;;3.83;84.99;100068.91;104624;1306;22859;-52
2022/11/15 07:18:59;;;;;;;20.00;10.90;;;;;;;3.82;84.82;100066.83;101945;1305;138737;-52
2022/11/15 07:21:45;;;;;;;19.80;11.30;;;;;;;3.79;84.76;100063.98;102103;1313;22561;-52
2022/11/15 07:24:30;;;;;;;15.00;10.10;;;;;;;3.78;84.91;100058.71;102237;1292;138350;-52
2022/11/15 07:27:17;;;;;;;19.60;10.90;;;;;;;3.77;84.76;100058.34;106618;1303;22072;-52
2022/11/15 07:30:03;;;;;;;19.40;10.20;;;;;;;3.78;84.58;100055.02;106466;1306;139194;-52
2022/11/15 07:32:55;;;;;;;20.90;10.60;;;;;;;3.78;84.57;100050.09;106571;1297;22125;-52
2022/11/15 07:35:42;;;;;;;19.20;11.10;;;;;;;3.76;84.47;100051.95;106410;1309;138483;-52
2022/11/15 07:38:28;;;;;;;20.60;12.40;;;;;;;3.76;84.60;100048.71;106516;1308;22852;-51
2022/11/15 07:41:13;;;;;;;18.90;12.30;;;;;;;3.79;84.38;100047.15;106409;1306;138195;-52
2022/11/15 07:43:58;;;;;;;31.50;17.50;;;;;;;3.80;84.69;100045.71;106513;1300;22123;-59
2022/11/15 07:46:44;;;;;;;24.80;16.10;;;;;;;3.82;84.56;100042.20;103567;1305;26504;-59
2022/11/15 07:49:30;;;;;;;24.70;14.50;;;;;;;3.83;84.49;100042.04;102038;1313;25758;-59
2022/11/15 07:52:15;;;;;;;24.80;15.40;;;;;;;3.82;84.28;100039.46;102092;1314;22511;-59
2022/11/15 07:55:01;;;;;;;22.90;15.80;;;;;;;3.81;83.97;100040.36;102174;1292;138369;-58
2022/11/15 07:57:46;;;;;;;24.00;16.10;;;;;;;3.78;83.69;100036.61;102117;1291;25425;-59
2022/11/15 08:00:32;;;;;;;24.50;15.90;;;;;;;3.72;83.53;100030.84;101930;1298;138312;-59
2022/11/15 08:03:20;;;;;;;26.00;16.30;;;;;;;3.67;83.41;100032.68;102035;1292;22476;-58
2022/11/15 08:06:06;;;;;;;24.90;15.90;;;;;;;3.64;83.00;100026.40;101978;1291;138281;-58
2022/11/15 08:08:51;;;;;;;22.60;16.10;;;;;;;3.62;83.32;100025.10;102043;1284;22573;-59
2022/11/15 08:11:37;;;;;;;23.70;16.80;;;;;;;3.59;82.78;100019.61;101980;1312;138486;-59
2022/11/15 08:14:23;;;;;;;26.30;16.70;;;;;;;3.58;82.95;100016.65;102045;1292;22477;-58
2022/11/15 08:17:09;;;;;;;26.40;15.90;;;;;;;3.59;82.85;100014.45;102000;1288;139354;-58
2022/11/15 08:19:54;;;;;;;22.80;15.30;;;;;;;3.59;83.10;100013.30;102064;1314;22504;-58
2022/11/15 08:22:40;;;;;;;26.10;14.80;;;;;;;3.59;83.21;100011.89;102107;1292;23013;-60
2022/11/15 08:25:26;;;;;;;23.70;14.70;;;;;;;3.59;82.92;100010.23;102141;1308;138487;-60
2022/11/15 08:28:11;;;;;;;26.20;15.40;;;;;;;3.60;82.98;100011.86;102101;1292;24243;-59
2022/11/15 08:30:57;;;;;;;24.10;15.80;;;;;;;3.60;82.86;100010.20;101979;1292;139834;-59
2022/11/15 08:33:43;;;;;;;24.30;15.50;;;;;;;3.59;82.86;100009.95;102075;1288;23915;-59
2022/11/15 08:36:29;;;;;;;23.10;15.00;;;;;;;3.58;82.96;100009.56;106420;1308;138128;-61
2022/11/15 08:39:25;;;;;;;27.30;16.60;;;;;;;3.53;82.76;100000.09;106532;1306;22838;-60
2022/11/15 08:42:11;;;;;;;24.00;15.60;;;;;;;3.57;82.79;100005.70;106444;1306;139525;-60
2022/11/15 08:45:04;;;;;;;22.10;15.10;;;;;;;3.54;82.85;100002.95;106526;1305;22249;-60
2022/11/15 08:47:50;;;;;;;21.40;14.70;;;;;;;3.51;82.71;100003.80;101953;1308;138179;-59
2022/11/15 08:50:39;;;;;;;23.10;16.40;;;;;;;3.48;82.43;100001.25;102151;1313;22607;-59
2022/11/15 08:53:24;;;;;;;24.40;15.70;;;;;;;3.46;82.62;99998.59;102038;1291;138474;-59
2022/11/15 08:56:11;;;;;;;20.80;14.70;;;;;;;3.45;82.63;99993.92;102462;1308;22474;-59
2022/11/15 08:58:57;;;;;;;20.20;14.90;;;;;;;3.46;82.87;99991.36;102367;1289;22651;-59
2022/11/15 09:01:42;;;;;;;21.50;14.60;;;;;;;3.45;82.73;99987.34;102084;1307;25605;-60
2022/11/15 09:04:28;;;;;;;22.60;15.50;;;;;;;3.45;82.84;99987.71;102072;1292;22629;-60
2022/11/15 09:07:14;;;;;;;20.20;14.50;;;;;;;3.45;82.71;99979.71;102020;1294;138484;-59
2022/11/15 09:09:59;;;;;;;21.80;14.90;;;;;;;3.45;82.87;99970.05;102289;1299;23445;-59
2022/11/15 09:12:48;;;;;;;21.30;14.90;;;;;;;3.47;83.00;99962.25;102291;1289;139025;-60
2022/11/15 09:15:33;;;;;;;22.20;15.00;;;;;;;3.51;83.15;99954.73;106610;1306;22187;-60
2022/11/15 09:18:20;;;;;;;22.30;13.40;;;;;;;3.55;83.15;99944.55;106502;1291;139002;-60
2022/11/15 09:21:07;;;;;;;23.40;13.30;;;;;;;3.58;82.92;99943.20;106649;1306;22227;-60
2022/11/15 09:23:52;;;;;;;22.70;14.80;;;;;;;3.60;83.09;99934.68;106450;1291;138808;-60
2022/11/15 09:26:37;;;;;;;19.10;13.10;;;;;;;3.62;83.03;99927.98;106623;1306;22117;-60
2022/11/15 09:29:23;;;;;;;21.10;14.20;;;;;;;3.64;82.76;99925.92;106492;1306;138189;-60
2022/11/15 09:32:08;;;;;;;20.90;13.80;;;;;;;3.67;83.07;99918.48;106527;1309;22253;-60
2022/11/15 09:34:59;;;;;;;18.30;13.00;;;;;;;3.71;82.83;99913.67;106515;1301;23297;-61
2022/11/15 09:37:57;;;;;;;19.00;13.10;;;;;;;3.74;82.85;99905.56;106328;1306;22231;-61
2022/11/15 09:40:42;;;;;;;20.20;14.30;;;;;;;3.75;82.86;99902.81;106503;1305;22606;-60
2022/11/15 09:43:57;;;;;;;68.40;41.60;;;;;;;3.77;83.09;99898.05;106389;1305;139125;-59
2022/11/15 09:46:56;;;;;;;24.30;15.40;;;;;;;3.81;83.10;99891.80;103796;1299;22519;-62
2022/11/15 09:49:28;;;;;;;18.90;13.10;;;;;;;3.83;82.94;99886.83;106449;1291;137993;-63
2022/11/15 09:52:11;;;;;;;21.50;13.40;;;;;;;3.85;83.01;99885.30;106498;1306;22107;-60
2022/11/15 09:54:44;;;;;;;19.80;12.60;;;;;;;3.87;82.89;99874.52;106639;1297;138611;-60
2022/11/15 09:57:45;;;;;;;18.20;13.00;;;;;;;3.88;83.01;99869.14;106647;1288;22108;-60
2022/11/15 10:00:40;;;;;;;20.10;13.70;;;;;;;3.90;83.17;99861.66;106463;1303;138649;-60
2022/11/15 10:03:50;;;;;;;17.50;12.40;;;;;;;3.91;83.06;99854.31;106648;1294;22264;-60
2022/11/15 10:06:24;;;;;;;18.90;13.00;;;;;;;3.93;83.34;99843.95;106673;1307;138783;-61
2022/11/15 10:09:11;;;;;;;23.60;13.70;;;;;;;3.99;83.62;99837.83;106725;1293;22662;-61
2022/11/15 10:11:38;;;;;;;18.20;12.40;;;;;;;4.04;83.41;99836.20;106672;1301;139414;-61
2022/11/15 10:14:17;;;;;;;20.10;12.90;;;;;;;4.08;83.33;99835.24;106563;1303;23050;-61
2022/11/15 10:16:50;;;;;;;20.50;13.00;;;;;;;4.12;83.02;99828.23;103937;1304;25290;-61
2022/11/15 10:19:26;;;;;;;24.70;15.10;;;;;;;4.14;83.17;99829.40;102359;1300;139012;-60
2022/11/15 10:22:26;;;;;;;22.20;13.80;;;;;;;4.16;82.97;99820.33;102391;1292;24251;-61
2022/11/15 10:25:08;;;;;;;21.80;14.00;;;;;;;4.18;83.15;99818.61;102296;1294;137947;-61
2022/11/15 10:27:35;;;;;;;22.00;14.40;;;;;;;4.16;82.92;99810.73;102490;1304;22492;-61
2022/11/15 10:30:02;;;;;;;24.20;15.60;;;;;;;4.19;82.93;99812.75;102255;1289;138032;-61
2022/11/15 10:32:29;;;;;;;22.00;14.70;;;;;;;4.19;83.08;99808.30;106243;1313;22150;-61
2022/11/15 10:34:56;;;;;;;22.50;13.90;;;;;;;4.20;82.91;99803.41;106605;1305;22212;-62
2022/11/15 10:37:30;;;;;;;30.30;16.30;;;;;;;4.23;83.15;99802.24;106609;1294;139253;-62
2022/11/15 10:40:15;;;;;;;21.80;14.60;;;;;;;4.26;83.37;99796.11;106642;1305;22211;-61
2022/11/15 10:42:42;;;;;;;28.60;15.60;;;;;;;4.28;82.97;99787.94;106551;1305;138442;-62
2022/11/15 10:45:29;;;;;;;23.30;17.10;;;;;;;4.30;83.18;99783.00;106639;1305;22153;-61
2022/11/15 10:48:19;;;;;;;23.00;15.80;;;;;;;4.31;83.07;99779.43;106584;1301;138717;-61
2022/11/15 10:50:47;;;;;;;25.50;15.60;;;;;;;4.34;83.26;99773.46;106741;1303;22188;-63
2022/11/15 10:53:24;;;;;;;26.10;15.90;;;;;;;4.38;82.84;99767.77;106517;1296;138023;-61
2022/11/15 10:55:56;;;;;;;29.70;16.90;;;;;;;4.41;83.25;99760.17;106772;1304;22893;-62
2022/11/15 10:58:31;;;;;;;46.50;28.90;;;;;;;4.43;83.21;99751.41;106600;1304;22148;-61
2022/11/15 11:01:32;;;;;;;28.70;18.90;;;;;;;4.46;83.29;99739.91;106649;1303;138642;-59
2022/11/15 11:04:00;;;;;;;22.80;15.10;;;;;;;4.50;83.24;99734.20;106779;1297;22383;-61
2022/11/15 11:06:26;;;;;;;24.90;16.60;;;;;;;4.51;82.98;99725.06;106694;1309;137764;-60
2022/11/15 11:09:00;;;;;;;;;;;;;;;4.53;82.98;99723.52;106759;1306;23096;-60
2022/11/15 11:11:47;;;;;;;25.20;16.80;;;;;;;4.52;82.92;99718.38;106740;1301;125943;-59
2022/11/15 11:14:22;;;;;;;33.10;18.90;;;;;;;4.52;82.93;99712.27;106833;1306;23084;-59
2022/11/15 11:16:52;;;;;;;27.10;17.10;;;;;;;4.53;83.04;99705.30;106708;1298;22155;-59
2022/11/15 11:19:28;;;;;;;25.70;15.40;;;;;;;4.55;83.39;99696.58;106714;1295;138169;-59
2022/11/15 11:22:05;;;;;;;24.80;16.00;;;;;;;4.57;83.21;99691.51;106791;1309;22176;-59
2022/11/15 11:24:32;;;;;;;26.80;17.30;;;;;;;4.58;83.35;99691.05;106669;1306;137928;-60
2022/11/15 11:27:08;;;;;;;;;;;;;;;4.60;82.93;99687.80;106848;1306;22342;-59
2022/11/15 11:29:47;;;;;;;26.30;16.00;;;;;;;4.59;83.20;99681.79;106659;1303;124745;-59
2022/11/15 11:32:29;;;;;;;23.10;14.90;;;;;;;4.59;83.22;99671.45;106829;1308;22278;-59
2022/11/15 11:35:17;;;;;;;24.30;16.70;;;;;;;4.59;83.16;99664.35;106592;1305;22592;-59
2022/11/15 11:38:03;;;;;;;22.90;15.60;;;;;;;4.62;83.23;99658.92;106771;1309;22827;-59
2022/11/15 11:40:41;;;;;;;26.70;16.00;;;;;;;4.64;83.21;99658.23;106780;1303;23111;-60
2022/11/15 11:43:18;;;;;;;25.30;16.80;;;;;;;4.66;83.35;99657.98;106565;1289;139201;-60
2022/11/15 11:46:13;;;;;;;23.90;16.50;;;;;;;4.69;83.11;99652.96;106729;1305;22126;-60
2022/11/15 11:48:44;;;;;;;23.40;16.40;;;;;;;4.72;83.04;99646.05;106581;1304;138620;-60
2022/11/15 11:51:21;;;;;;;25.80;16.90;;;;;;;4.74;83.29;99643.22;106755;1302;22784;-60
2022/11/15 11:53:54;;;;;;;26.10;18.00;;;;;;;4.76;82.92;99636.36;106628;1303;139810;-60
2022/11/15 11:56:37;;;;;;;28.20;15.90;;;;;;;4.78;83.05;99636.36;106679;1305;22171;-59
2022/11/15 11:59:14;;;;;;;25.30;16.30;;;;;;;4.79;83.02;99630.99;106736;1293;22202;-59
2022/11/15 12:01:42;;;;;;;25.20;17.50;;;;;;;4.80;82.97;99630.41;106547;1301;138100;-60
2022/11/15 12:04:15;;;;;;;32.50;20.20;;;;;;;4.82;82.96;99630.90;106798;1302;22283;-60
2022/11/15 12:06:47;;;;;;;33.30;20.50;;;;;;;4.82;82.98;99621.48;106617;1304;138503;-58
2022/11/15 12:09:26;;;;;;;26.90;17.80;;;;;;;4.87;82.86;99618.04;106708;1302;22137;-58
2022/11/15 12:12:24;;;;;;;24.20;16.90;;;;;;;4.91;82.62;99619.37;106621;1293;139004;-58
2022/11/15 12:15:09;;;;;;;27.20;17.10;;;;;;;4.95;82.82;99615.94;106865;1303;22906;-58
2022/11/15 12:17:37;;;;;;;31.80;17.00;;;;;;;4.98;82.85;99605.53;106718;1300;138587;-58
2022/11/15 12:20:13;;;;;;;24.50;17.30;;;;;;;5.00;82.76;99600.04;106832;1295;22157;-58
2022/11/15 12:23:05;;;;;;;28.40;17.70;;;;;;;4.98;82.41;99591.88;106843;1302;22187;-58
2022/11/15 12:25:41;;;;;;;30.10;17.60;;;;;;;4.96;82.58;99587.31;105530;1309;139057;-59
2022/11/15 12:31:02;;;;;;;23.60;17.20;;;;;;;4.97;82.71;99580.16;99685;1338;544806;-58
2022/11/15 12:33:36;;;;;;;25.10;17.00;;;;;;;4.98;82.77;99577.41;105970;1313;22238;-58
2022/11/15 12:36:29;;;;;;;28.00;17.40;;;;;;;5.01;82.67;99575.86;105707;1313;137128;-59
2022/11/15 12:39:00;;;;;;;26.50;17.20;;;;;;;5.03;82.54;99567.66;105765;1318;22784;-58
2022/11/15 12:41:28;;;;;;;32.10;17.70;;;;;;;5.02;82.79;99557.86;105750;1302;137954;-58
2022/11/15 12:43:55;;;;;;;22.90;17.50;;;;;;;5.07;82.78;99558.09;105652;1316;109249;-59
2022/11/15 12:46:22;;;;;;;28.50;19.00;;;;;;;5.11;83.00;99559.84;105878;1312;22136;-59
2022/11/15 12:48:50;;;;;;;24.80;18.00;;;;;;;5.14;82.86;99559.66;105961;1312;138441;-59